Time;durP1;ratioP1;P1;durP2;ratioP2;P2;SDS_P1;SDS_P2;PMS_P1;PMS_P2;Temp;Humidity;BMP_temperature;BMP_pressure;BME280_temperature;BME280_humidity;BME280_pressure;Samples;Min_cycle;Max_cycle;Signal;HPM_P1;HPM_P2
2022/04/10 00:00:14;;;;;;;0.00;0.00;;;;;;;-145.06;100.00;63404.56;10394571;28;20032;-64
2022/04/10 00:05:15;;;;;;;0.08;0.08;;;;;;;-145.06;100.00;63404.56;10391477;28;20029;-65
2022/04/10 00:10:15;;;;;;;0.00;0.00;;;;;;;-145.06;100.00;63404.56;10398129;28;20052;-65
2022/04/10 00:15:16;;;;;;;0.00;0.00;;;;;;;-145.06;100.00;63404.56;10382203;28;20337;-64
2022/04/10 00:20:16;;;;;;;0.00;0.00;;;;;;;-145.06;100.00;63404.56;10369156;28;20113;-64
2022/04/10 00:25:18;;;;;;;0.00;0.00;;;;;;;-145.06;100.00;63404.56;10368823;28;20465;-65
2022/04/10 00:30:18;;;;;;;0.10;0.10;;;;;;;-145.06;100.00;63404.56;10381269;28;20025;-65
2022/04/10 00:35:19;;;;;;;0.00;0.00;;;;;;;-145.06;100.00;63404.56;10388115;28;20026;-65
2022/04/10 00:40:19;;;;;;;0.10;0.10;;;;;;;-145.06;100.00;63404.56;10387656;28;20030;-65
2022/04/10 00:45:20;;;;;;;0.00;0.00;;;;;;;-145.06;100.00;63404.56;10405081;28;20022;-65
2022/04/10 00:50:21;;;;;;;0.00;0.00;;;;;;;-145.06;100.00;63404.56;10379599;28;20152;-65
2022/04/10 00:55:22;;;;;;;0.00;0.00;;;;;;;-145.06;100.00;63404.56;10397513;28;20507;-65
2022/04/10 01:00:22;;;;;;;0.00;0.00;;;;;;;-145.06;100.00;63404.56;10403293;28;20107;-65
2022/04/10 01:05:22;;;;;;;0.00;0.00;;;;;;;-145.06;100.00;63404.56;10393951;28;20511;-65
2022/04/10 01:10:23;;;;;;;0.00;0.00;;;;;;;-145.06;100.00;63404.56;10396700;28;20036;-65
2022/04/10 01:15:23;;;;;;;0.00;0.00;;;;;;;-145.06;100.00;63404.56;10391393;28;20285;-65
2022/04/10 01:20:25;;;;;;;0.00;0.00;;;;;;;-145.06;100.00;63404.56;10396604;28;20045;-65
2022/04/10 01:25:25;;;;;;;0.00;0.00;;;;;;;-145.06;100.00;63404.56;10388138;28;20368;-66
2022/04/10 01:30:25;;;;;;;0.00;0.00;;;;;;;-145.06;100.00;63404.56;10396296;28;20029;-65
2022/04/10 01:35:27;;;;;;;0.00;0.00;;;;;;;-145.06;100.00;63404.56;10395608;28;20018;-65
2022/04/10 01:40:27;;;;;;;0.00;0.00;;;;;;;-145.06;100.00;63404.56;10383093;28;20634;-65
2022/04/10 01:45:27;;;;;;;0.00;0.00;;;;;;;-145.06;100.00;63404.56;10409341;28;20017;-65
2022/04/10 01:50:28;;;;;;;0.00;0.00;;;;;;;-145.06;100.00;63404.56;10379167;28;20029;-65
2022/04/10 01:55:28;;;;;;;0.00;0.00;;;;;;;-145.06;100.00;63404.56;10387628;28;20454;-66
2022/04/10 02:00:28;;;;;;;0.08;0.08;;;;;;;-145.06;100.00;63404.56;10386331;28;20075;-65
2022/04/10 02:05:28;;;;;;;0.00;0.00;;;;;;;-145.06;100.00;63404.56;10390795;28;20016;-65
2022/04/10 02:10:29;;;;;;;0.00;0.00;;;;;;;-145.06;100.00;63404.56;10402388;28;20539;-65
2022/04/10 02:15:30;;;;;;;0.00;0.00;;;;;;;-145.06;100.00;63404.56;10394988;28;20024;-64
2022/04/10 02:20:30;;;;;;;0.00;0.00;;;;;;;-145.06;100.00;63404.56;10401017;28;20018;-64
2022/04/10 02:25:30;;;;;;;0.00;0.00;;;;;;;-145.06;100.00;63404.56;10402424;28;20025;-63
2022/04/10 02:30:31;;;;;;;0.00;0.00;;;;;;;-145.06;100.00;63404.56;10390841;28;20033;-64
2022/04/10 02:35:31;;;;;;;0.20;0.20;;;;;;;-145.06;100.00;63404.56;10405566;28;20021;-64
2022/04/10 02:40:31;;;;;;;0.00;0.00;;;;;;;-145.06;100.00;63404.56;10420114;28;20525;-65
2022/04/10 02:45:31;;;;;;;0.00;0.00;;;;;;;-145.06;100.00;63404.56;10383503;28;20258;-65
2022/04/10 02:50:32;;;;;;;0.00;0.00;;;;;;;-145.06;100.00;63404.56;10390111;28;20516;-65
2022/04/10 02:55:32;;;;;;;0.00;0.00;;;;;;;-145.06;100.00;63404.56;10377714;28;20491;-65
2022/04/10 03:00:33;;;;;;;0.10;0.10;;;;;;;-145.06;100.00;63404.56;10397984;28;20363;-65
2022/04/10 03:05:33;;;;;;;0.00;0.00;;;;;;;-145.06;100.00;63404.56;10407209;28;20028;-65
2022/04/10 03:10:33;;;;;;;0.10;0.10;;;;;;;-145.06;100.00;63404.56;10409298;28;20128;-65
2022/04/10 03:15:34;;;;;;;0.07;0.07;;;;;;;-145.06;100.00;63404.56;10381946;28;20025;-65
2022/04/10 03:20:34;;;;;;;0.10;0.10;;;;;;;-145.06;100.00;63404.56;10383174;28;20414;-65
2022/04/10 03:25:35;;;;;;;0.00;0.00;;;;;;;-145.06;100.00;63404.56;10381926;28;20022;-65
2022/04/10 03:30:35;;;;;;;0.00;0.00;;;;;;;-145.06;100.00;63404.56;10400808;28;20264;-65
2022/04/10 03:35:36;;;;;;;0.10;0.10;;;;;;;-145.06;100.00;63404.56;10388451;28;20025;-64
2022/04/10 03:40:36;;;;;;;0.00;0.00;;;;;;;-145.06;100.00;63404.56;10402893;28;20268;-65
2022/04/10 03:45:38;;;;;;;0.00;0.00;;;;;;;-145.06;100.00;63404.56;10389510;28;20051;-65
2022/04/10 03:50:38;;;;;;;0.00;0.00;;;;;;;-145.06;100.00;63404.56;10378996;28;20022;-65
2022/04/10 03:55:38;;;;;;;0.10;0.10;;;;;;;-145.06;100.00;63404.56;10386178;28;20048;-63
2022/04/10 04:00:39;;;;;;;0.10;0.10;;;;;;;-145.06;100.00;63404.56;10367103;28;20033;-65
2022/04/10 04:05:39;;;;;;;0.10;0.10;;;;;;;-145.06;100.00;63404.56;10383025;28;20017;-65
2022/04/10 04:10:40;;;;;;;0.00;0.00;;;;;;;-145.06;100.00;63404.56;10403557;28;20265;-65
2022/04/10 04:15:40;;;;;;;0.00;0.00;;;;;;;-145.06;100.00;63404.56;10389229;28;20018;-65
2022/04/10 04:20:40;;;;;;;0.00;0.00;;;;;;;-145.06;100.00;63404.56;10400070;28;20061;-65
2022/04/10 04:25:41;;;;;;;0.00;0.00;;;;;;;-145.06;100.00;63404.56;10383503;28;20075;-65
2022/04/10 04:30:41;;;;;;;0.00;0.00;;;;;;;-145.06;100.00;63404.56;10407119;28;20473;-65
2022/04/10 04:35:41;;;;;;;0.00;0.00;;;;;;;-145.06;100.00;63404.56;10396814;28;20396;-65
2022/04/10 04:40:42;;;;;;;0.00;0.00;;;;;;;-145.06;100.00;63404.56;10404578;28;20755;-65
2022/04/10 04:45:42;;;;;;;0.05;0.05;;;;;;;-145.06;100.00;63404.56;10381743;28;20500;-65
2022/04/10 04:50:43;;;;;;;0.10;0.10;;;;;;;-145.06;100.00;63404.56;10388573;28;20400;-65
2022/04/10 04:55:44;;;;;;;0.00;0.00;;;;;;;-145.06;100.00;63404.56;10373232;28;20116;-66
2022/04/10 05:00:44;;;;;;;0.10;0.10;;;;;;;-145.06;100.00;63404.56;10406133;28;20108;-65
2022/04/10 05:05:45;;;;;;;0.00;0.00;;;;;;;-145.06;100.00;63404.56;10372874;28;20261;-66
2022/04/10 05:10:45;;;;;;;0.00;0.00;;;;;;;-145.06;100.00;63404.56;10414637;28;20264;-65
2022/04/10 05:15:46;;;;;;;0.00;0.00;;;;;;;-145.06;100.00;63404.56;10392708;28;20024;-66
2022/04/10 05:20:46;;;;;;;0.00;0.00;;;;;;;-145.06;100.00;63404.56;10394758;28;20411;-66
2022/04/10 05:25:47;;;;;;;0.00;0.00;;;;;;;-145.06;100.00;63404.56;10398080;28;20018;-66
2022/04/10 05:30:47;;;;;;;0.00;0.00;;;;;;;-145.06;100.00;63404.56;10392715;28;20025;-66
2022/04/10 05:35:48;;;;;;;0.00;0.00;;;;;;;-145.06;100.00;63404.56;10394165;22;20054;-69
2022/04/10 05:40:52;;;;;;;0.00;0.00;;;;;;;-145.06;100.00;63404.56;10372427;28;20030;-68
2022/04/10 05:45:53;;;;;;;0.00;0.00;;;;;;;-145.06;100.00;63404.56;10356353;28;20018;-70
2022/04/10 05:50:53;;;;;;;0.00;0.00;;;;;;;-145.06;100.00;63404.56;10371159;28;20022;-70
2022/04/10 05:55:53;;;;;;;0.00;0.00;;;;;;;-145.06;100.00;63404.56;10371210;28;20300;-69
2022/04/10 06:00:55;;;;;;;0.00;0.00;;;;;;;-145.06;100.00;63404.56;10351226;28;20022;-71
2022/04/10 06:05:56;;;;;;;0.00;0.00;;;;;;;-145.06;100.00;63404.56;10331129;28;20500;-70
2022/04/10 06:10:56;;;;;;;0.00;0.00;;;;;;;-145.06;100.00;63404.56;10359760;28;20018;-68
2022/04/10 06:15:56;;;;;;;0.00;0.00;;;;;;;-145.06;100.00;63404.56;10337277;28;20019;-69
2022/04/10 06:20:56;;;;;;;0.00;0.00;;;;;;;-145.06;100.00;63404.56;10340336;28;20037;-69
2022/04/10 06:25:57;;;;;;;0.00;0.00;;;;;;;-145.06;100.00;63404.56;10338212;28;20022;-69
2022/04/10 06:30:57;;;;;;;0.00;0.00;;;;;;;-145.06;100.00;63404.56;10329401;28;20288;-68
2022/04/10 06:35:57;;;;;;;0.00;0.00;;;;;;;-145.06;100.00;63404.56;10329565;28;20353;-68
2022/04/10 06:40:58;;;;;;;0.00;0.00;;;;;;;-145.06;100.00;63404.56;10367507;28;20079;-68
2022/04/10 06:45:58;;;;;;;0.00;0.00;;;;;;;-145.06;100.00;63404.56;10369603;28;20022;-68
2022/04/10 06:50:58;;;;;;;0.00;0.00;;;;;;;-145.06;100.00;63404.56;10368099;28;20017;-68
2022/04/10 06:55:59;;;;;;;0.00;0.00;;;;;;;-145.06;100.00;63404.56;10369236;28;20473;-69
2022/04/10 07:01:00;;;;;;;0.00;0.00;;;;;;;-145.06;100.00;63404.56;10363327;28;20021;-69
2022/04/10 07:06:00;;;;;;;0.03;0.03;;;;;;;-145.06;100.00;63404.56;10346306;28;20025;-68
2022/04/10 07:11:00;;;;;;;0.10;0.10;;;;;;;-145.06;100.00;63404.56;10367644;28;20076;-69
2022/04/10 07:16:01;;;;;;;0.10;0.10;;;;;;;-145.06;100.00;63404.56;10368539;28;20279;-69
2022/04/10 07:21:02;;;;;;;0.10;0.10;;;;;;;-145.06;100.00;63404.56;10367498;28;20034;-69
2022/04/10 07:26:03;;;;;;;0.10;0.10;;;;;;;-145.06;100.00;63404.56;10368043;28;20105;-69
2022/04/10 07:31:08;;;;;;;0.10;0.10;;;;;;;-145.06;100.00;63404.56;10367564;28;20013;-69
2022/04/10 07:36:09;;;;;;;0.05;0.05;;;;;;;-145.06;100.00;63404.56;10367518;28;20702;-69
2022/04/10 07:41:09;;;;;;;0.10;0.10;;;;;;;-145.06;100.00;63404.56;10345567;28;20049;-68
2022/04/10 07:51:29;;;;;;;0.10;0.10;;;;;;;-145.06;100.00;63404.56;10366616;28;20022;-69
2022/04/10 07:56:29;;;;;;;0.00;0.00;;;;;;;-145.06;100.00;63404.56;10366955;28;20477;-68
2022/04/10 08:01:29;;;;;;;0.00;0.00;;;;;;;-145.06;100.00;63404.56;10348428;28;20476;-68
2022/04/10 08:06:30;;;;;;;0.10;0.10;;;;;;;-145.06;100.00;63404.56;10362475;28;20022;-69
2022/04/10 08:11:31;;;;;;;0.10;0.10;;;;;;;-145.06;100.00;63404.56;10366103;28;20436;-69
2022/04/10 08:16:31;;;;;;;0.00;0.00;;;;;;;-145.06;100.00;63404.56;10363587;28;20424;-69
2022/04/10 08:21:31;;;;;;;0.10;0.10;;;;;;;-145.06;100.00;63404.56;10334335;28;20015;-70
2022/04/10 08:26:34;;;;;;;0.00;0.00;;;;;;;-145.06;100.00;63404.56;10325426;28;20022;-69
2022/04/10 08:31:34;;;;;;;0.10;0.10;;;;;;;-145.06;100.00;63404.56;10325322;28;20393;-69
2022/04/10 08:36:35;;;;;;;0.10;0.10;;;;;;;-145.06;100.00;63404.56;10331366;28;20033;-69
2022/04/10 08:41:37;;;;;;;0.10;0.10;;;;;;;-145.06;100.00;63404.56;10363962;28;20477;-68
2022/04/10 08:46:37;;;;;;;0.00;0.00;;;;;;;-145.06;100.00;63404.56;10365881;28;20428;-68
2022/04/10 08:51:38;;;;;;;0.10;0.10;;;;;;;-145.06;100.00;63404.56;10366072;28;20025;-69
2022/04/10 08:56:38;;;;;;;0.10;0.10;;;;;;;-145.06;100.00;63404.56;10363469;28;20030;-68
2022/04/10 09:01:38;;;;;;;0.10;0.10;;;;;;;-145.06;100.00;63404.56;10364613;28;20511;-68
2022/04/10 09:06:42;;;;;;;0.10;0.10;;;;;;;-145.06;100.00;63404.56;10354571;28;20025;-68
2022/04/10 09:11:43;;;;;;;0.63;0.63;;;;;;;-145.06;100.00;63404.56;10365881;28;20022;-68
2022/04/10 09:16:43;;;;;;;0.10;0.10;;;;;;;-145.06;100.00;63404.56;10373106;28;20034;-68
2022/04/10 09:21:44;;;;;;;0.00;0.00;;;;;;;-145.06;100.00;63404.56;10361629;28;20421;-68
2022/04/10 09:26:50;;;;;;;0.10;0.10;;;;;;;-145.06;100.00;63404.56;10371258;28;20469;-68
2022/04/10 09:31:52;;;;;;;0.10;0.10;;;;;;;-145.06;100.00;63404.56;10370155;28;20033;-68
2022/04/10 09:37:00;;;;;;;0.08;0.08;;;;;;;-145.06;100.00;63404.56;10369607;28;20080;-68
2022/04/10 09:42:10;;;;;;;0.00;0.00;;;;;;;-145.06;100.00;63404.56;10358431;28;20045;-68
2022/04/10 09:47:11;;;;;;;0.10;0.10;;;;;;;-145.06;100.00;63404.56;10372272;28;20347;-68
2022/04/10 09:52:15;;;;;;;0.00;0.00;;;;;;;-145.06;100.00;63404.56;10370671;28;20029;-68
2022/04/10 09:57:17;;;;;;;0.05;0.05;;;;;;;-145.06;100.00;63404.56;10371251;28;20022;-68
2022/04/10 10:02:20;;;;;;;0.00;0.00;;;;;;;-145.06;100.00;63404.56;10370165;28;20026;-68
2022/04/10 10:07:21;;;;;;;0.10;0.10;;;;;;;-145.06;100.00;63404.56;10373947;28;20030;-68
2022/04/10 10:12:22;;;;;;;0.00;0.00;;;;;;;-145.06;100.00;63404.56;10366580;28;20022;-68
2022/04/10 10:17:23;;;;;;;0.10;0.10;;;;;;;-145.06;100.00;63404.56;10371412;28;20022;-69
2022/04/10 10:22:24;;;;;;;0.10;0.10;;;;;;;-145.06;100.00;63404.56;10368491;28;20030;-68
2022/04/10 10:27:44;;;;;;;0.00;0.00;;;;;;;-145.06;100.00;63404.56;10356836;28;20033;-69
2022/04/10 10:32:50;;;;;;;0.00;0.00;;;;;;;-145.06;100.00;63404.56;10339251;28;20516;-68
2022/04/10 10:37:52;;;;;;;0.10;0.10;;;;;;;-145.06;100.00;63404.56;10370427;28;20040;-68
2022/04/10 10:42:58;;;;;;;0.00;0.00;;;;;;;-145.06;100.00;63404.56;10368081;28;20440;-68
2022/04/10 10:48:32;;;;;;;0.10;0.10;;;;;;;-145.06;100.00;63404.56;10368607;28;20014;-69
2022/04/10 10:53:45;;;;;;;0.08;0.08;;;;;;;-145.06;100.00;63404.56;10367620;28;20457;-68
2022/04/10 10:58:49;;;;;;;0.03;0.03;;;;;;;-145.06;100.00;63404.56;10366017;28;20022;-68
2022/04/10 11:04:03;;;;;;;0.00;0.00;;;;;;;-145.06;100.00;63404.56;10328350;28;20026;-68
2022/04/10 11:09:20;;;;;;;;;;;;;;;-145.06;100.00;63404.56;10329453;28;20069;-69
2022/04/10 11:14:41;;;;;;;0.00;0.00;;;;;;;-145.06;100.00;63404.56;10349102;28;19917;-70
2022/04/10 11:19:49;;;;;;;0.00;0.00;;;;;;;-145.06;100.00;63404.56;10365174;28;20026;-69
2022/04/10 11:24:53;;;;;;;0.10;0.10;;;;;;;-145.06;100.00;63404.56;10348649;28;20101;-69
2022/04/10 11:30:02;;;;;;;0.00;0.00;;;;;;;-145.06;100.00;63404.56;10326390;28;20088;-69
2022/04/10 11:40:26;;;;;;;0.03;0.03;;;;;;;-145.06;100.00;63404.56;10438640;28;20072;-65
2022/04/10 11:45:28;;;;;;;0.00;0.00;;;;;;;-145.06;100.00;63404.56;10440973;28;20021;-65
2022/04/10 11:50:29;;;;;;;0.05;0.05;;;;;;;-145.06;100.00;63404.56;10408048;28;20495;-66
2022/04/10 11:55:56;;;;;;;0.05;0.05;;;;;;;-145.06;100.00;63404.56;10389381;28;20033;-65
2022/04/10 12:00:58;;;;;;;0.00;0.00;;;;;;;-145.06;100.00;63404.56;10403550;28;20073;-65
2022/04/10 12:05:59;;;;;;;0.03;0.03;;;;;;;-145.06;100.00;63404.56;10411052;28;20022;-65
2022/04/10 12:11:00;;;;;;;0.00;0.00;;;;;;;-145.06;100.00;63404.56;10447945;28;20364;-65
2022/04/10 12:16:08;;;;;;;0.00;0.00;;;;;;;-145.06;100.00;63404.56;10411958;28;20414;-65
2022/04/10 12:21:08;;;;;;;0.00;0.00;;;;;;;-145.06;100.00;63404.56;10406683;28;20510;-65
2022/04/10 12:26:09;;;;;;;0.00;0.00;;;;;;;-145.06;100.00;63404.56;10406730;28;20049;-64
2022/04/10 12:31:11;;;;;;;0.00;0.00;;;;;;;-145.06;100.00;63404.56;10406197;28;20026;-65
2022/04/10 12:36:16;;;;;;;0.03;0.03;;;;;;;-145.06;100.00;63404.56;10407249;28;20124;-65
2022/04/10 12:41:27;;;;;;;0.10;0.10;;;;;;;-145.06;100.00;63404.56;10415433;28;20399;-65
2022/04/10 12:46:38;;;;;;;0.03;0.03;;;;;;;-145.06;100.00;63404.56;10411376;28;20052;-65
2022/04/10 12:51:49;;;;;;;0.10;0.10;;;;;;;-145.06;100.00;63404.56;10414689;28;20481;-65
2022/04/10 12:56:53;;;;;;;0.10;0.10;;;;;;;-145.06;100.00;63404.56;10414242;28;20028;-65
2022/04/10 13:01:53;;;;;;;0.03;0.03;;;;;;;-145.06;100.00;63404.56;10414186;28;20025;-65
2022/04/10 13:06:54;;;;;;;0.10;0.10;;;;;;;-145.06;100.00;63404.56;10413113;28;20037;-65
2022/04/10 13:11:54;;;;;;;0.10;0.10;;;;;;;-145.06;100.00;63404.56;10412350;28;20039;-65
2022/04/10 13:17:03;;;;;;;0.10;0.10;;;;;;;-145.06;100.00;63404.56;10412154;28;20030;-65
2022/04/10 13:22:04;;;;;;;0.10;0.10;;;;;;;-145.06;100.00;63404.56;10413795;28;20127;-65
2022/04/10 13:27:04;;;;;;;0.00;0.00;;;;;;;-145.06;100.00;63404.56;10414133;28;20121;-65
2022/04/10 13:32:05;;;;;;;0.00;0.00;;;;;;;-145.06;100.00;63404.56;10413528;28;20127;-65
2022/04/10 13:37:05;;;;;;;0.00;0.00;;;;;;;-145.06;100.00;63404.56;10414302;28;20279;-65
2022/04/10 13:42:06;;;;;;;0.10;0.10;;;;;;;-145.06;100.00;63404.56;10410500;28;20484;-65
2022/04/10 13:47:07;;;;;;;0.10;0.10;;;;;;;-145.06;100.00;63404.56;10410992;28;20025;-65
2022/04/10 13:52:07;;;;;;;0.10;0.10;;;;;;;-145.06;100.00;63404.56;10411306;28;20532;-66
2022/04/10 13:57:07;;;;;;;0.08;0.08;;;;;;;-145.06;100.00;63404.56;10411293;28;20026;-65
2022/04/10 14:02:08;;;;;;;0.10;0.10;;;;;;;-145.06;100.00;63404.56;10438976;28;20017;-65
2022/04/10 14:07:09;;;;;;;0.00;0.00;;;;;;;-145.06;100.00;63404.56;10454593;28;20099;-66
2022/04/10 14:12:11;;;;;;;0.10;0.10;;;;;;;-145.06;100.00;63404.56;10445254;28;20413;-65
2022/04/10 14:17:11;;;;;;;0.10;0.10;;;;;;;-145.06;100.00;63404.56;10419280;28;20537;-65
2022/04/10 14:22:12;;;;;;;0.00;0.00;;;;;;;-145.06;100.00;63404.56;10410659;28;20090;-65
2022/04/10 14:27:12;;;;;;;0.10;0.10;;;;;;;-145.06;100.00;63404.56;10414852;28;20027;-66
2022/04/10 14:32:13;;;;;;;0.00;0.00;;;;;;;-145.06;100.00;63404.56;10450943;28;20033;-65
2022/04/10 14:37:13;;;;;;;0.00;0.00;;;;;;;-145.06;100.00;63404.56;10453380;28;20025;-65
2022/04/10 14:42:14;;;;;;;0.00;0.00;;;;;;;-145.06;100.00;63404.56;10443366;28;20497;-66
2022/04/10 14:47:14;;;;;;;0.10;0.10;;;;;;;-145.06;100.00;63404.56;10409318;28;20021;-65
2022/04/10 14:52:15;;;;;;;0.10;0.10;;;;;;;-145.06;100.00;63404.56;10410680;28;20029;-65
2022/04/10 14:57:15;;;;;;;0.00;0.00;;;;;;;-145.06;100.00;63404.56;10394095;28;20351;-65
2022/04/10 15:02:16;;;;;;;0.00;0.00;;;;;;;-145.06;100.00;63404.56;10410807;28;20036;-65
2022/04/10 15:07:16;;;;;;;0.00;0.00;;;;;;;-145.06;100.00;63404.56;10411017;28;20120;-65
2022/04/10 15:12:16;;;;;;;0.00;0.00;;;;;;;-145.06;100.00;63404.56;10409839;28;20033;-65
2022/04/10 15:17:17;;;;;;;0.00;0.00;;;;;;;-145.06;100.00;63404.56;10410135;28;20029;-65
2022/04/10 15:22:18;;;;;;;0.00;0.00;;;;;;;-145.06;100.00;63404.56;10410050;28;20029;-65
2022/04/10 15:27:19;;;;;;;0.00;0.00;;;;;;;-145.06;100.00;63404.56;10411124;28;20152;-65
2022/04/10 15:32:19;;;;;;;0.00;0.00;;;;;;;-145.06;100.00;63404.56;10409162;28;20504;-65
2022/04/10 15:37:19;;;;;;;0.00;0.00;;;;;;;-145.06;100.00;63404.56;10409943;28;20025;-65
2022/04/10 15:42:20;;;;;;;0.10;0.10;;;;;;;-145.06;100.00;63404.56;10402424;28;20037;-65
2022/04/10 15:47:20;;;;;;;0.00;0.00;;;;;;;-145.06;100.00;63404.56;10416102;28;20108;-65
2022/04/10 15:52:21;;;;;;;0.10;0.10;;;;;;;-145.06;100.00;63404.56;10408863;28;20117;-65
2022/04/10 15:57:22;;;;;;;0.00;0.00;;;;;;;-145.06;100.00;63404.56;10409859;28;20300;-65
2022/04/10 16:02:23;;;;;;;0.00;0.00;;;;;;;-145.06;100.00;63404.56;10407756;28;20041;-65
2022/04/10 16:07:23;;;;;;;0.00;0.00;;;;;;;-145.06;100.00;63404.56;10408133;28;20021;-65
2022/04/10 16:12:23;;;;;;;0.00;0.00;;;;;;;-145.06;100.00;63404.56;10406989;28;20472;-66
2022/04/10 16:17:24;;;;;;;0.10;0.10;;;;;;;-145.06;100.00;63404.56;10426111;28;20029;-65
2022/04/10 16:22:24;;;;;;;0.10;0.10;;;;;;;-145.06;100.00;63404.56;10430799;28;20527;-65
2022/04/10 16:32:46;;;;;;;0.00;0.00;;;;;;;-145.06;100.00;63404.56;10414407;28;20029;-66
2022/04/10 16:37:48;;;;;;;0.00;0.00;;;;;;;-145.06;100.00;63404.56;10414643;28;20021;-66
2022/04/10 16:42:49;;;;;;;0.08;0.08;;;;;;;-145.06;100.00;63404.56;10414965;28;20057;-66
2022/04/10 16:47:50;;;;;;;0.00;0.00;;;;;;;-145.06;100.00;63404.56;10416404;28;20022;-66
2022/04/10 16:52:50;;;;;;;0.00;0.00;;;;;;;-145.06;100.00;63404.56;10414100;28;20453;-66
2022/04/10 16:57:51;;;;;;;0.08;0.08;;;;;;;-145.06;100.00;63404.56;10414752;28;20034;-66
2022/04/10 17:02:53;;;;;;;0.00;0.00;;;;;;;-145.06;100.00;63404.56;10420082;28;20021;-66
2022/04/10 17:07:53;;;;;;;0.00;0.00;;;;;;;-145.06;100.00;63404.56;10413822;28;20033;-66
2022/04/10 17:12:54;;;;;;;0.00;0.00;;;;;;;-145.06;100.00;63404.56;10413621;28;20025;-66
2022/04/10 17:17:54;;;;;;;0.00;0.00;;;;;;;-145.06;100.00;63404.56;10413917;28;20018;-66
2022/04/10 17:22:54;;;;;;;0.00;0.00;;;;;;;-145.06;100.00;63404.56;10412898;28;20030;-66
2022/04/10 17:27:55;;;;;;;0.00;0.00;;;;;;;-145.06;100.00;63404.56;10395389;28;20071;-66
2022/04/10 17:32:55;;;;;;;0.00;0.00;;;;;;;-145.06;100.00;63404.56;10412132;28;20115;-66
2022/04/10 17:37:56;;;;;;;0.00;0.00;;;;;;;-145.06;100.00;63404.56;10413292;28;20029;-66
2022/04/10 17:42:56;;;;;;;0.00;0.00;;;;;;;-145.06;100.00;63404.56;10453811;22;20295;-91
2022/04/10 17:47:56;;;;;;;0.00;0.00;;;;;;;-145.06;100.00;63404.56;10385889;28;20142;-92
2022/04/10 17:52:57;;;;;;;0.00;0.00;;;;;;;-145.06;100.00;63404.56;10377977;28;20034;-92
2022/04/10 17:57:57;;;;;;;0.00;0.00;;;;;;;-145.06;100.00;63404.56;10376825;28;20014;-92
2022/04/10 18:02:57;;;;;;;0.00;0.00;;;;;;;-145.06;100.00;63404.56;10375430;28;20022;-91
2022/04/10 18:07:58;;;;;;;0.00;0.00;;;;;;;-145.06;100.00;63404.56;10375997;28;20052;-92
2022/04/10 18:12:59;;;;;;;0.00;0.00;;;;;;;-145.06;100.00;63404.56;10377687;28;20092;-92
2022/04/10 18:17:59;;;;;;;0.00;0.00;;;;;;;-145.06;100.00;63404.56;10379461;28;20529;-92
2022/04/10 18:22:59;;;;;;;0.00;0.00;;;;;;;-145.06;100.00;63404.56;10375991;28;20051;-93
2022/04/10 18:28:00;;;;;;;0.00;0.00;;;;;;;-145.06;100.00;63404.56;10364533;28;20018;-92
2022/04/10 18:33:02;;;;;;;0.00;0.00;;;;;;;-145.06;100.00;63404.56;10375420;28;20026;-92
2022/04/10 18:38:03;;;;;;;0.00;0.00;;;;;;;-145.06;100.00;63404.56;10374997;28;20437;-92
2022/04/10 18:43:07;;;;;;;0.00;0.00;;;;;;;-145.06;100.00;63404.56;10375205;28;20033;-92
2022/04/10 18:48:08;;;;;;;0.00;0.00;;;;;;;-145.06;100.00;63404.56;10374436;28;20018;-90
2022/04/10 18:53:08;;;;;;;0.00;0.00;;;;;;;-145.06;100.00;63404.56;10384294;28;20044;-94
2022/04/10 18:58:09;;;;;;;0.00;0.00;;;;;;;-145.06;100.00;63404.56;10388160;28;20448;-92
2022/04/10 19:03:09;;;;;;;0.00;0.00;;;;;;;-145.06;100.00;63404.56;10337780;28;20051;-92
2022/04/10 19:08:10;;;;;;;0.00;0.00;;;;;;;-145.06;100.00;63404.56;10373540;28;20498;-92
2022/04/10 19:13:10;;;;;;;0.00;0.00;;;;;;;-145.06;100.00;63404.56;10372556;28;20375;-92
2022/04/10 19:18:13;;;;;;;0.05;0.05;;;;;;;-145.06;100.00;63404.56;10372132;28;20105;-92
2022/04/10 19:23:14;;;;;;;0.00;0.00;;;;;;;-145.06;100.00;63404.56;10371945;28;20030;-91
2022/04/10 19:28:14;;;;;;;0.00;0.00;;;;;;;-145.06;100.00;63404.56;10370953;28;20029;-92
2022/04/10 19:33:14;;;;;;;0.00;0.00;;;;;;;-145.06;100.00;63404.56;10371366;28;20037;-92
2022/04/10 19:38:16;;;;;;;0.00;0.00;;;;;;;-145.06;100.00;63404.56;10371676;28;20386;-93
2022/04/10 19:43:16;;;;;;;0.00;0.00;;;;;;;-145.06;100.00;63404.56;10371479;28;20121;-93
2022/04/10 19:48:17;;;;;;;0.00;0.00;;;;;;;-145.06;100.00;63404.56;10370963;28;20192;-91
2022/04/10 19:58:38;;;;;;;0.00;0.00;;;;;;;-145.06;100.00;63404.56;10367445;28;20557;-91
2022/04/10 20:03:38;;;;;;;0.00;0.00;;;;;;;-145.06;100.00;63404.56;10354802;28;20093;-91
2022/04/10 20:08:39;;;;;;;0.00;0.00;;;;;;;-145.06;100.00;63404.56;10371178;28;20140;-90
2022/04/10 20:13:41;;;;;;;0.00;0.00;;;;;;;-145.06;100.00;63404.56;10370094;28;20044;-89
2022/04/10 20:18:41;;;;;;;0.00;0.00;;;;;;;-145.06;100.00;63404.56;10370671;28;20648;-91
2022/04/10 20:23:43;;;;;;;0.00;0.00;;;;;;;-145.06;100.00;63404.56;10370808;28;20124;-90
2022/04/10 20:28:43;;;;;;;0.00;0.00;;;;;;;-145.06;100.00;63404.56;10370527;28;20056;-91
2022/04/10 20:33:44;;;;;;;0.00;0.00;;;;;;;-145.06;100.00;63404.56;10370202;28;20014;-94
2022/04/10 20:38:45;;;;;;;0.00;0.00;;;;;;;-145.06;100.00;63404.56;10377468;28;20026;-91
2022/04/10 20:43:45;;;;;;;0.00;0.00;;;;;;;-145.06;100.00;63404.56;10370028;28;20044;-91
2022/04/10 20:48:45;;;;;;;0.00;0.00;;;;;;;-145.06;100.00;63404.56;10370873;28;20132;-92
2022/04/10 20:53:46;;;;;;;0.00;0.00;;;;;;;-145.06;100.00;63404.56;10370227;28;20261;-93
2022/04/10 20:58:46;;;;;;;0.00;0.00;;;;;;;-145.06;100.00;63404.56;10370968;28;20030;-92
2022/04/10 21:03:46;;;;;;;0.00;0.00;;;;;;;-145.06;100.00;63404.56;10370550;28;20292;-92
2022/04/10 21:08:47;;;;;;;0.00;0.00;;;;;;;-145.06;100.00;63404.56;10371992;28;20036;-93
2022/04/10 21:13:47;;;;;;;0.00;0.00;;;;;;;-145.06;100.00;63404.56;10379873;28;20037;-91
2022/04/10 21:18:47;;;;;;;0.00;0.00;;;;;;;-145.06;100.00;63404.56;10378616;28;20498;-91
2022/04/10 21:23:51;;;;;;;0.00;0.00;;;;;;;-145.06;100.00;63404.56;10377334;28;20760;-92
2022/04/10 21:28:51;;;;;;;0.00;0.00;;;;;;;-145.06;100.00;63404.56;10360962;28;20014;-92
2022/04/10 21:33:52;;;;;;;0.00;0.00;;;;;;;-145.06;100.00;63404.56;10377288;28;20108;-91
2022/04/10 21:38:52;;;;;;;0.00;0.00;;;;;;;-145.06;100.00;63404.56;10377936;28;20367;-92
2022/04/10 21:43:53;;;;;;;0.00;0.00;;;;;;;-145.06;100.00;63404.56;10379172;28;20055;-92
2022/04/10 21:48:53;;;;;;;0.00;0.00;;;;;;;-145.06;100.00;63404.56;10378326;28;20253;-93
2022/04/10 21:53:53;;;;;;;0.00;0.00;;;;;;;-145.06;100.00;63404.56;10378071;28;20324;-92
2022/04/10 21:58:54;;;;;;;0.00;0.00;;;;;;;-145.06;100.00;63404.56;10378151;28;20021;-91
2022/04/10 22:03:54;;;;;;;0.00;0.00;;;;;;;-145.06;100.00;63404.56;10378514;28;20280;-92
2022/04/10 22:08:54;;;;;;;0.00;0.00;;;;;;;-145.06;100.00;63404.56;10379089;28;20053;-92
2022/04/10 22:13:55;;;;;;;0.00;0.00;;;;;;;-145.06;100.00;63404.56;10393744;28;20249;-93
2022/04/10 22:18:55;;;;;;;0.05;0.05;;;;;;;-145.06;100.00;63404.56;10396568;28;20030;-91
2022/04/10 22:23:55;;;;;;;0.00;0.00;;;;;;;-145.06;100.00;63404.56;10376624;28;20125;-93
2022/04/10 22:28:56;;;;;;;0.00;0.00;;;;;;;-145.06;100.00;63404.56;10377140;28;20048;-92
2022/04/10 22:33:56;;;;;;;0.00;0.00;;;;;;;-145.06;100.00;63404.56;10361031;28;20014;-92
2022/04/10 22:38:56;;;;;;;0.00;0.00;;;;;;;-145.06;100.00;63404.56;10377144;28;20094;-92
2022/04/10 22:43:57;;;;;;;0.10;0.10;;;;;;;-145.06;100.00;63404.56;10376387;28;20264;-91
2022/04/10 22:48:57;;;;;;;0.10;0.10;;;;;;;-145.06;100.00;63404.56;10375951;28;20018;-92
2022/04/10 22:53:58;;;;;;;0.00;0.00;;;;;;;-145.06;100.00;63404.56;10375680;28;20113;-91